createdAt,value
2019-04-23T00:03:06.936Z,15.53
2019-04-23T00:05:48.660Z,15.17
2019-04-23T00:08:19.285Z,14.53
2019-04-23T00:10:51.707Z,15.07
2019-04-23T00:13:24.580Z,15.13
2019-04-23T00:16:21.497Z,15.27
2019-04-23T00:21:34.566Z,15.80
2019-04-23T00:24:17.586Z,15.80
2019-04-23T00:27:01.944Z,15.90
2019-04-23T00:29:23.620Z,16.20
2019-04-23T00:31:46.491Z,16.50
2019-04-23T00:34:15.990Z,15.87
2019-04-23T00:36:53.482Z,15.57
2019-04-23T00:39:29.450Z,14.90
2019-04-23T00:41:58.729Z,15.70
2019-04-23T00:44:32.241Z,14.90
2019-04-23T00:47:02.506Z,14.90
2019-04-23T00:49:31.772Z,15.43
2019-04-23T00:52:14.593Z,16.10
2019-04-23T00:54:39.356Z,15.40
2019-04-23T00:57:15.003Z,16.37
2019-04-23T00:59:55.879Z,15.80
2019-04-23T01:02:18.341Z,16.60
2019-04-23T01:05:01.269Z,15.90
2019-04-23T01:07:24.267Z,15.43
2019-04-23T01:10:10.631Z,15.43
2019-04-23T01:12:42.670Z,16.70
2019-04-23T01:15:11.723Z,17.90
2019-04-23T01:20:14.254Z,16.10
2019-04-23T01:22:33.443Z,16.10
2019-04-23T01:25:24.727Z,16.13
2019-04-23T01:28:36.806Z,15.87
2019-04-23T01:31:02.495Z,16.33
2019-04-23T01:33:38.009Z,16.37
2019-04-23T01:36:16.192Z,15.43
2019-04-23T01:38:40.540Z,15.40
2019-04-23T01:41:13.305Z,14.90
2019-04-23T01:43:41.071Z,16.37
2019-04-23T01:46:12.833Z,15.23
2019-04-23T01:48:52.267Z,15.50
2019-04-23T01:51:25.923Z,15.50
2019-04-23T01:53:49.688Z,14.90
2019-04-23T01:56:25.915Z,15.53
2019-04-23T02:01:31.718Z,14.73
2019-04-23T02:04:12.187Z,15.07
2019-04-23T02:06:38.903Z,14.90
2019-04-23T02:09:13.809Z,14.67
2019-04-23T02:11:45.583Z,14.23
2019-04-23T02:14:14.770Z,14.63
2019-04-23T02:16:50.351Z,14.30
2019-04-23T02:19:23.313Z,15.50
2019-04-23T02:22:28.569Z,14.33
2019-04-23T02:25:02.437Z,15.20
2019-04-23T02:27:36.669Z,15.17
2019-04-23T02:30:20.701Z,15.07
2019-04-23T02:32:52.614Z,15.47
2019-04-23T02:35:46.852Z,16.73
2019-04-23T02:38:00.255Z,16.30
2019-04-23T02:40:26.722Z,16.97
2019-04-23T02:43:06.858Z,14.60
2019-04-23T02:45:35.924Z,15.30
2019-04-23T02:48:19.869Z,15.43
2019-04-23T02:53:31.717Z,16.23
2019-04-23T02:55:43.153Z,16.07
2019-04-23T02:58:23.791Z,15.53
2019-04-23T03:00:55.711Z,17.30
2019-04-23T03:03:27.962Z,16.80
2019-04-23T03:05:51.056Z,17.50
2019-04-23T03:08:29.911Z,17.13
2019-04-23T03:11:13.187Z,15.93
2019-04-23T03:13:44.237Z,14.73
2019-04-23T03:16:45.920Z,15.20
2019-04-23T03:19:02.961Z,15.37
2019-04-23T03:29:49.262Z,13.63
2019-04-23T03:37:33.870Z,13.60
2019-04-23T03:40:04.409Z,12.90
2019-04-23T03:42:23.326Z,13.50
2019-04-23T03:52:39.192Z,10.80
2019-04-23T03:55:10.309Z,11.57
2019-04-23T03:57:41.142Z,10.73
2019-04-23T04:03:10.354Z,10.47
2019-04-23T04:05:33.812Z,10.07
2019-04-23T04:08:07.240Z,10.33
2019-04-23T04:10:25.448Z,9.97
2019-04-23T04:13:04.106Z,10.20
2019-04-23T04:18:25.988Z,9.73
2019-04-23T04:23:22.733Z,9.17
2019-04-23T04:25:48.705Z,8.70
2019-04-23T04:28:38.896Z,8.33
2019-04-23T04:31:03.599Z,8.40
2019-04-23T04:43:45.313Z,8.13
2019-04-23T04:51:19.452Z,6.93
2019-04-23T04:54:02.664Z,7.30
2019-04-23T04:56:29.070Z,7.40
2019-04-23T04:58:53.050Z,7.10
2019-04-23T05:01:22.426Z,6.77
2019-04-23T05:03:58.458Z,7.40
2019-04-23T05:06:37.503Z,7.10
2019-04-23T05:14:06.486Z,6.60
2019-04-23T05:16:46.809Z,6.70
2019-04-23T05:19:29.574Z,5.93
2019-04-23T05:21:55.686Z,7.30
2019-04-23T05:26:50.823Z,6.47
2019-04-23T05:29:19.990Z,6.40
2019-04-23T05:31:53.369Z,6.60
2019-04-23T05:34:27.327Z,6.07
2019-04-23T05:39:38.103Z,5.57
2019-04-23T05:44:44.806Z,6.03
2019-04-23T05:49:47.558Z,6.10
2019-04-23T05:52:24.092Z,5.90
2019-04-23T05:54:56.252Z,5.17
2019-04-23T05:57:20.035Z,5.63
2019-04-23T05:59:57.494Z,5.50
2019-04-23T06:02:35.362Z,5.47
2019-04-23T06:05:03.836Z,4.80
2019-04-23T06:10:16.523Z,5.10
2019-04-23T06:12:45.441Z,5.33
2019-04-23T06:15:23.800Z,5.00
2019-04-23T06:17:56.165Z,5.30
2019-04-23T06:20:29.991Z,4.53
2019-04-23T06:23:01.985Z,4.83
2019-04-23T06:28:08.187Z,4.93
2019-04-23T06:33:16.056Z,5.10
2019-04-23T06:35:47.018Z,5.20
2019-04-23T06:38:37.293Z,4.87
2019-04-23T06:40:46.946Z,5.57
2019-04-23T06:43:32.044Z,4.77
2019-04-23T06:45:58.174Z,4.83
2019-04-23T06:48:35.493Z,5.03
2019-04-23T06:51:15.999Z,5.47
2019-04-23T06:53:35.889Z,5.07
2019-04-23T06:58:44.046Z,5.03
2019-04-23T07:01:36.556Z,5.00
2019-04-23T07:03:51.784Z,5.20
2019-04-23T07:06:38.382Z,5.20
2019-04-23T07:13:58.353Z,5.07
2019-04-23T07:16:32.484Z,5.10
2019-04-23T07:19:19.898Z,6.00
2019-04-23T07:21:42.074Z,5.10
2019-04-23T07:29:18.959Z,5.40
2019-04-23T07:31:53.808Z,5.27
2019-04-23T07:34:25.811Z,5.00
2019-04-23T07:36:59.055Z,5.53
2019-04-23T07:39:58.340Z,5.30
2019-04-23T07:42:39.521Z,5.47
2019-04-23T07:50:49.457Z,5.13
2019-04-23T07:53:23.116Z,4.27
2019-04-23T07:56:02.302Z,5.00
2019-04-23T08:00:58.204Z,6.00
2019-04-23T08:03:48.281Z,5.37
2019-04-23T08:06:02.670Z,4.77
2019-04-23T08:08:36.411Z,5.77
2019-04-23T08:11:30.606Z,6.33
2019-04-23T08:16:27.799Z,5.47
2019-04-23T08:21:27.593Z,6.10
2019-04-23T08:24:06.559Z,5.87
2019-04-23T08:26:59.780Z,5.70
2019-04-23T08:29:48.938Z,6.00
2019-04-23T08:32:12.353Z,6.53
2019-04-23T08:34:49.476Z,5.90
2019-04-23T08:37:15.393Z,6.77
2019-04-23T08:39:46.487Z,6.97
2019-04-23T08:45:24.230Z,8.00
2019-04-23T08:48:00.722Z,7.40
2019-04-23T08:50:32.285Z,5.50
2019-04-23T08:53:18.314Z,5.60
2019-04-23T08:55:38.809Z,6.50
2019-04-23T08:58:14.379Z,6.70
2019-04-23T09:03:25.129Z,9.20
2019-04-23T09:05:57.705Z,9.40
2019-04-23T09:11:16.646Z,9.47
2019-04-23T09:16:16.298Z,8.87
2019-04-23T09:18:45.970Z,9.57
2019-04-23T09:21:21.435Z,9.30
2019-04-23T09:23:53.716Z,9.63
2019-04-23T09:26:25.933Z,12.00
2019-04-23T09:28:56.512Z,9.13
2019-04-23T09:34:52.744Z,7.60
2019-04-23T09:37:52.664Z,11.57
2019-04-23T09:41:03.089Z,12.70
2019-04-23T09:43:27.814Z,9.77
2019-04-23T09:46:17.590Z,12.47
2019-04-23T09:48:51.170Z,14.03
2019-04-23T09:51:22.325Z,11.43
2019-04-23T09:53:56.831Z,6.10
2019-04-23T09:56:22.417Z,8.17
2019-04-23T09:59:02.976Z,6.70
2019-04-23T10:01:29.027Z,8.23
2019-04-23T10:03:50.827Z,6.03
2019-04-23T10:06:20.295Z,11.00
2019-04-23T10:08:52.227Z,9.70
2019-04-23T10:11:19.922Z,8.23
2019-04-23T10:13:52.595Z,6.13
2019-04-23T10:16:26.324Z,6.13
2019-04-23T10:18:57.260Z,7.03
2019-04-23T10:21:29.268Z,6.57
2019-04-23T10:24:01.397Z,13.13
2019-04-23T10:26:32.585Z,12.83
2019-04-23T10:29:07.772Z,8.20
2019-04-23T10:31:40.030Z,7.03
2019-04-23T10:34:12.299Z,7.87
2019-04-23T10:36:44.189Z,7.00
2019-04-23T10:39:21.606Z,10.83
2019-04-23T10:41:48.796Z,6.63
2019-04-23T10:44:25.583Z,13.47
2019-04-23T10:47:40.423Z,8.10
2019-04-23T10:53:26.616Z,6.93
2019-04-23T10:55:55.922Z,7.07
2019-04-23T10:58:22.871Z,5.90
2019-04-23T11:01:01.715Z,5.87
2019-04-23T11:09:29.341Z,9.97
2019-04-23T11:11:53.678Z,6.10
2019-04-23T11:14:25.457Z,8.20
2019-04-23T11:19:52.144Z,6.73
2019-04-23T11:22:21.800Z,6.60
2019-04-23T11:25:20.411Z,5.87
2019-04-23T11:27:14.700Z,5.87
2019-04-23T11:29:38.782Z,6.30
2019-04-23T11:32:40.906Z,6.30
2019-04-23T11:35:04.839Z,8.73
2019-04-23T11:37:36.345Z,18.47
2019-04-23T11:40:01.187Z,6.80
2019-04-23T11:42:30.994Z,12.07
2019-04-23T11:45:30.603Z,9.13
2019-04-23T11:48:07.530Z,7.83
2019-04-23T11:52:41.575Z,7.00
2019-04-23T11:55:29.341Z,8.43
2019-04-23T11:57:52.567Z,31.73
2019-04-23T12:02:58.058Z,6.50
2019-04-23T12:06:07.872Z,9.63
2019-04-23T12:08:50.976Z,11.63
2019-04-23T12:17:03.918Z,6.53
2019-04-23T12:22:03.525Z,9.67
2019-04-23T12:24:58.212Z,12.97
2019-04-23T12:27:06.287Z,6.70
2019-04-23T12:35:04.139Z,10.97
2019-04-23T12:40:19.892Z,10.83
2019-04-23T12:50:45.412Z,9.83
2019-04-23T12:53:00.673Z,8.63
2019-04-23T12:58:09.934Z,6.80
2019-04-23T13:03:16.961Z,10.33
2019-04-23T13:05:37.488Z,8.80
2019-04-23T13:08:27.207Z,10.57
2019-04-23T13:15:53.276Z,14.53
2019-04-23T13:18:33.985Z,11.67
2019-04-23T13:21:14.064Z,11.80
2019-04-23T13:23:47.606Z,9.70
2019-04-23T13:26:08.947Z,9.77
2019-04-23T13:28:52.882Z,7.50
2019-04-23T13:31:20.449Z,7.73
2019-04-23T13:33:57.668Z,13.13
2019-04-23T13:36:39.513Z,8.43
2019-04-23T13:39:16.112Z,10.73
2019-04-23T13:41:54.112Z,9.70
2019-04-23T13:44:13.372Z,9.03
2019-04-23T13:46:46.739Z,9.23
2019-04-23T13:49:18.482Z,11.17
2019-04-23T13:51:50.638Z,9.83
2019-04-23T13:54:52.689Z,9.73
2019-04-23T13:59:41.083Z,8.80
2019-04-23T14:02:03.560Z,10.33
2019-04-23T14:04:58.467Z,7.77
2019-04-23T14:07:23.324Z,7.87
2019-04-23T14:12:30.258Z,13.40
2019-04-23T14:18:02.912Z,8.63
2019-04-23T14:20:07.903Z,7.37
2019-04-23T14:27:52.151Z,9.40
2019-04-23T14:30:21.861Z,7.27
2019-04-23T14:32:54.463Z,9.67
2019-04-23T14:35:25.763Z,8.47
2019-04-23T14:38:09.847Z,7.93
2019-04-23T14:40:36.705Z,7.80
2019-04-23T14:43:10.878Z,6.70
2019-04-23T14:46:33.520Z,6.40
2019-04-23T14:48:20.661Z,7.57
2019-04-23T14:51:02.521Z,7.50
2019-04-23T14:58:42.489Z,7.03
2019-04-23T15:08:57.380Z,7.20
2019-04-23T15:13:55.325Z,7.47
2019-04-23T15:16:33.406Z,7.97
2019-04-23T15:19:28.524Z,6.70
2019-04-23T15:22:04.938Z,7.00
2019-04-23T15:29:20.022Z,7.17
2019-04-23T15:32:13.833Z,7.07
2019-04-23T15:35:03.118Z,8.13
2019-04-23T15:39:55.127Z,8.40
2019-04-23T15:44:55.830Z,8.10
2019-04-23T15:47:28.409Z,6.70
2019-04-23T15:52:39.657Z,7.17
2019-04-23T16:00:17.905Z,7.63
2019-04-23T16:02:16.822Z,7.07
2019-04-23T16:04:49.043Z,6.63
2019-04-23T16:07:41.454Z,6.57
2019-04-23T16:13:02.509Z,7.30
2019-04-23T16:15:27.054Z,6.77
2019-04-23T16:18:20.548Z,7.03
2019-04-23T16:23:21.447Z,7.10
2019-04-23T16:25:54.814Z,7.20
2019-04-23T16:28:28.974Z,7.10
2019-04-23T16:31:04.311Z,7.73
2019-04-23T16:33:38.646Z,8.60
2019-04-23T16:43:57.707Z,7.73
2019-04-23T16:46:28.488Z,7.63
2019-04-23T16:49:09.028Z,7.63
2019-04-23T16:54:09.992Z,8.90
2019-04-23T16:56:55.911Z,9.67
2019-04-23T16:59:24.496Z,10.33
2019-04-23T17:04:26.856Z,7.87
2019-04-23T17:06:52.349Z,7.90
2019-04-23T17:09:33.643Z,10.00
2019-04-23T17:12:06.015Z,8.53
2019-04-23T17:14:23.513Z,9.17
2019-04-23T17:16:53.506Z,8.87
2019-04-23T17:22:09.574Z,8.77
2019-04-23T17:24:57.428Z,8.80
2019-04-23T17:29:56.242Z,8.47
2019-04-23T17:32:55.651Z,8.63
2019-04-23T17:35:40.292Z,8.13
2019-04-23T17:38:07.461Z,8.33
2019-04-23T17:40:35.586Z,8.03
2019-04-23T17:43:08.882Z,9.23
2019-04-23T17:45:56.691Z,8.70
2019-04-23T17:48:24.075Z,8.77
2019-04-23T17:53:29.720Z,8.70
2019-04-23T18:09:00.824Z,9.30
2019-04-23T18:11:42.515Z,9.07
2019-04-23T18:14:02.342Z,11.97
2019-04-23T18:16:40.901Z,10.97
2019-04-23T18:19:11.578Z,9.63
2019-04-23T18:27:35.940Z,9.97
2019-04-23T18:33:40.697Z,9.50
2019-04-23T18:40:58.877Z,9.63
2019-04-23T18:43:26.937Z,10.27
2019-04-23T18:45:54.091Z,10.17
2019-04-23T18:53:43.436Z,10.23
2019-04-23T19:01:23.157Z,9.60
2019-04-23T19:04:17.479Z,10.70
2019-04-23T19:06:46.599Z,10.30
2019-04-23T19:13:02.060Z,9.33
2019-04-23T19:15:37.112Z,9.93
2019-04-23T19:17:58.152Z,11.40
2019-04-23T19:23:21.073Z,9.73
2019-04-23T19:25:42.124Z,9.57
2019-04-23T19:28:34.614Z,10.30
2019-04-23T19:30:57.277Z,10.60
2019-04-23T19:41:03.819Z,9.73
2019-04-23T19:43:41.829Z,11.30
2019-04-23T19:49:07.304Z,11.17
2019-04-23T19:51:16.935Z,9.90
2019-04-23T19:54:01.736Z,11.03
2019-04-23T19:56:34.007Z,10.80
2019-04-23T19:58:56.805Z,10.77
2019-04-23T20:01:35.393Z,10.27
2019-04-23T20:03:57.933Z,11.63
2019-04-23T20:06:58.539Z,10.50
2019-04-23T20:09:30.783Z,10.40
2019-04-23T20:11:50.239Z,11.03
2019-04-23T20:14:11.779Z,11.03
2019-04-23T20:17:06.083Z,11.23
2019-04-23T20:19:23.921Z,11.50
2019-04-23T20:27:06.281Z,11.27
2019-04-23T20:30:02.456Z,12.17
2019-04-23T20:35:07.017Z,12.10
2019-04-23T20:38:08.921Z,12.60
2019-04-23T20:40:15.747Z,11.93
2019-04-23T20:42:46.907Z,12.10
2019-04-23T20:45:14.609Z,12.67
2019-04-23T20:47:51.471Z,12.67
2019-04-23T20:50:18.174Z,12.97
2019-04-23T20:52:53.201Z,11.93
2019-04-23T20:55:41.135Z,13.70
2019-04-23T20:58:13.933Z,12.97
2019-04-23T21:03:47.209Z,13.80
2019-04-23T21:06:19.022Z,13.00
2019-04-23T21:09:13.228Z,13.47
2019-04-23T21:11:38.452Z,13.63
2019-04-23T21:14:09.418Z,14.07
2019-04-23T21:16:32.674Z,13.93
2019-04-23T21:19:05.649Z,15.20
2019-04-23T21:21:37.584Z,13.43
2019-04-23T21:24:14.594Z,13.43
2019-04-23T21:26:42.313Z,14.13
2019-04-23T21:29:09.082Z,14.63
2019-04-23T21:31:47.800Z,14.97
2019-04-23T21:34:17.798Z,15.20
2019-04-23T21:36:51.002Z,14.47
2019-04-23T21:42:40.766Z,16.03
2019-04-23T21:44:59.022Z,16.50
2019-04-23T21:50:19.215Z,17.00
2019-04-23T21:52:41.096Z,17.13
2019-04-23T21:55:15.629Z,17.30
2019-04-23T21:57:53.406Z,17.43
2019-04-23T22:00:14.271Z,17.03
2019-04-23T22:02:59.527Z,17.70
2019-04-23T22:05:25.205Z,17.80
2019-04-23T22:10:26.427Z,18.33
2019-04-23T22:13:15.990Z,19.30
2019-04-23T22:15:47.658Z,19.03
2019-04-23T22:18:06.988Z,18.60
2019-04-23T22:20:52.666Z,18.57
2019-04-23T22:26:08.876Z,18.30
2019-04-23T22:28:16.152Z,18.63
2019-04-23T22:31:03.720Z,18.80
2019-04-23T22:33:25.007Z,19.57
2019-04-23T22:36:04.526Z,18.80
2019-04-23T22:41:02.012Z,19.50
2019-04-23T22:43:49.835Z,17.80
2019-04-23T22:46:18.248Z,17.77
2019-04-23T22:49:14.227Z,17.73
2019-04-23T22:51:52.375Z,17.70
2019-04-23T22:54:11.413Z,18.00
2019-04-23T22:56:50.427Z,17.07
2019-04-23T22:59:37.755Z,16.47
2019-04-23T23:01:54.829Z,17.03
2019-04-23T23:07:07.661Z,18.00
2019-04-23T23:09:33.553Z,16.33
2019-04-23T23:12:07.818Z,15.87
2019-04-23T23:14:35.917Z,17.20
2019-04-23T23:17:02.281Z,16.47
2019-04-23T23:19:56.235Z,15.37
2019-04-23T23:22:13.535Z,15.93
2019-04-23T23:24:56.200Z,16.47
2019-04-23T23:27:16.736Z,15.53
2019-04-23T23:30:00.432Z,15.90
2019-04-23T23:32:31.186Z,15.43
2019-04-23T23:37:28.096Z,14.80
2019-04-23T23:40:15.106Z,14.27
2019-04-23T23:42:36.792Z,14.73
2019-04-23T23:47:52.178Z,14.17
2019-04-23T23:50:19.548Z,13.47
2019-04-23T23:52:56.622Z,13.57
2019-04-23T23:57:56.806Z,13.30
